Time;durP1;ratioP1;P1;durP2;ratioP2;P2;SDS_P1;SDS_P2;PMS_P1;PMS_P2;Temp;Humidity;BMP_temperature;BMP_pressure;BME280_temperature;BME280_humidity;BME280_pressure;Samples;Min_cycle;Max_cycle;Signal;HPM_P1;HPM_P2
2023/06/04 00:01:48;;;;;;;0.50;0.30;;;;;;;;;;5053965;28;20029;-81
2023/06/04 00:04:14;;;;;;;0.68;0.30;;;;;;;;;;5053794;28;20052;-81
2023/06/04 00:06:41;;;;;;;0.60;0.40;;;;;;;;;;5053606;28;20542;-81
2023/06/04 00:09:07;;;;;;;0.82;0.45;;;;;;;;;;5053634;28;20029;-81
2023/06/04 00:11:35;;;;;;;0.40;0.35;;;;;;;;;;5053899;28;20408;-81
2023/06/04 00:14:01;;;;;;;0.60;0.52;;;;;;;;;;5053399;28;20055;-81
2023/06/04 00:16:27;;;;;;;0.32;0.32;;;;;;;;;;5053429;28;20029;-81
2023/06/04 00:18:54;;;;;;;0.60;0.32;;;;;;;;;;5053685;28;20036;-81
2023/06/04 00:21:20;;;;;;;0.38;0.30;;;;;;;;;;5053185;28;20021;-81
2023/06/04 00:23:47;;;;;;;0.63;0.47;;;;;;;;;;5053455;28;20028;-81
2023/06/04 00:26:13;;;;;;;0.43;0.30;;;;;;;;;;5052999;28;20502;-81
2023/06/04 00:28:39;;;;;;;1.55;0.43;;;;;;;;;;5053354;28;20048;-81
2023/06/04 00:31:06;;;;;;;0.75;0.40;;;;;;;;;;5053496;28;20032;-81
2023/06/04 00:33:34;;;;;;;0.63;0.50;;;;;;;;;;5053330;28;20096;-81
2023/06/04 00:36:01;;;;;;;0.45;0.30;;;;;;;;;;5053243;28;20037;-81
2023/06/04 00:38:27;;;;;;;0.73;0.38;;;;;;;;;;5053147;28;20383;-81
2023/06/04 00:40:54;;;;;;;1.40;0.47;;;;;;;;;;5053078;28;20033;-81
2023/06/04 00:43:20;;;;;;;1.38;0.50;;;;;;;;;;5052855;28;20025;-81
2023/06/04 00:45:47;;;;;;;0.30;0.30;;;;;;;;;;5053120;28;20021;-81
2023/06/04 00:48:13;;;;;;;0.47;0.40;;;;;;;;;;5053012;28;20036;-81
2023/06/04 00:50:40;;;;;;;0.32;0.32;;;;;;;;;;5052769;28;20025;-81
2023/06/04 00:53:06;;;;;;;0.63;0.40;;;;;;;;;;5052984;28;20029;-81
2023/06/04 00:55:32;;;;;;;0.30;0.30;;;;;;;;;;5052807;28;20037;-81
2023/06/04 00:58:00;;;;;;;0.70;0.45;;;;;;;;;;5052884;28;20075;-81
2023/06/04 01:00:27;;;;;;;0.50;0.50;;;;;;;;;;5052856;28;20057;-81
2023/06/04 01:02:55;;;;;;;0.40;0.40;;;;;;;;;;5052763;28;20131;-81
2023/06/04 01:05:29;;;;;;;1.50;0.47;;;22.90;54.70;;;;;;5052851;28;20029;-81
2023/06/04 01:07:57;;;;;;;0.85;0.28;;;22.80;54.40;;;;;;5052471;28;20543;-81
2023/06/04 01:10:23;;;;;;;0.60;0.38;;;;;;;;;;5052597;28;20029;-81
2023/06/04 01:12:50;;;;;;;0.57;0.40;;;;;;;;;;5052666;28;20074;-81
2023/06/04 01:15:16;;;;;;;0.77;0.50;;;;;;;;;;5032331;28;20053;-81
2023/06/04 01:17:51;;;;;;;0.40;0.28;;;22.80;55.30;;;;;;5032693;28;20061;-81
2023/06/04 01:20:42;;;;;;;0.50;0.30;;;22.80;49.80;;;;;;5032612;28;20028;-81
2023/06/04 01:23:08;;;;;;;0.45;0.40;;;;;;;;;;5032366;28;20026;-81
2023/06/04 01:25:38;;;;;;;1.10;0.40;;;;;;;;;;5032589;28;20029;-81
2023/06/04 01:28:06;;;;;;;0.20;0.20;;;22.60;54.10;;;;;;5032532;28;20026;-81
2023/06/04 01:30:42;;;;;;;0.40;0.30;;;22.70;54.10;;;;;;5032360;28;20155;-81
2023/06/04 01:33:10;;;;;;;1.67;0.52;;;22.60;54.20;;;;;;5032226;28;20029;-81
2023/06/04 01:35:37;;;;;;;0.50;0.40;;;;;;;;;;5032098;28;20524;-81
2023/06/04 01:38:04;;;;;;;0.30;0.30;;;;;;;;;;5032430;28;20076;-81
2023/06/04 01:40:30;;;;;;;0.47;0.47;;;;;;;;;;5032293;28;20030;-81
2023/06/04 01:42:57;;;;;;;0.50;0.40;;;;;;;;;;5032453;28;20433;-81
2023/06/04 01:45:23;;;;;;;0.80;0.50;;;;;;;;;;5032283;28;20037;-81
2023/06/04 01:47:50;;;;;;;0.40;0.40;;;;;;;;;;5032336;28;20029;-81
2023/06/04 01:50:16;;;;;;;0.57;0.40;;;;;;;;;;5032304;28;20500;-81
2023/06/04 01:52:43;;;;;;;0.85;0.40;;;;;;;;;;5032206;28;20075;-81
2023/06/04 01:55:14;;;;;;;0.30;0.30;;;22.50;54.20;;;;;;5035845;28;20391;-81
2023/06/04 01:57:40;;;;;;;0.68;0.30;;;;;;;;;;5036079;28;20025;-81
2023/06/04 02:00:10;;;;;;;0.88;0.32;;;22.50;54.10;;;;;;5036201;28;20030;-81
2023/06/04 02:02:36;;;;;;;0.52;0.40;;;;;;;;;;5035993;28;20064;-81
2023/06/04 02:05:08;;;;;;;0.45;0.30;;;22.50;55.00;;;;;;5035936;28;20033;-81
2023/06/04 02:07:39;;;;;;;0.40;0.30;;;22.50;55.30;;;;;;5035992;28;20021;-81
2023/06/04 02:10:06;;;;;;;0.68;0.40;;;22.50;55.00;;;;;;5035922;28;20476;-80
2023/06/04 02:12:32;;;;;;;0.30;0.30;;;;;;;;;;5035847;28;20412;-80
2023/06/04 02:14:58;;;;;;;0.50;0.30;;;;;;;;;;5053029;28;20056;-80
2023/06/04 02:17:25;;;;;;;0.77;0.35;;;;;;;;;;5055691;28;20031;-80
2023/06/04 02:19:51;;;;;;;1.08;0.35;;;;;;;;;;5055966;28;20033;-80
2023/06/04 02:22:18;;;;;;;1.17;0.30;;;22.30;53.30;;;;;;5055596;28;20522;-80
2023/06/04 02:24:44;;;;;;;0.30;0.30;;;;;;;;;;5055537;28;20029;-81
2023/06/04 02:27:10;;;;;;;0.45;0.35;;;22.30;53.10;;;;;;5055590;28;20036;-80
2023/06/04 02:29:37;;;;;;;0.52;0.32;;;;;;;;;;5055378;28;20496;-80
2023/06/04 02:32:03;;;;;;;0.85;0.50;;;22.30;53.60;;;;;;5055510;28;20454;-81
2023/06/04 02:34:29;;;;;;;0.30;0.30;;;;;;;;;;5055624;28;20056;-80
2023/06/04 02:36:56;;;;;;;0.40;0.30;;;;;;;;;;5055318;28;20075;-80
2023/06/04 02:39:22;;;;;;;0.30;0.28;;;;;;;;;;5055553;28;20026;-80
2023/06/04 02:41:48;;;;;;;0.47;0.35;;;;;;;;;;5055257;28;20040;-81
2023/06/04 02:44:14;;;;;;;0.43;0.30;;;;;;;;;;5055289;28;20033;-81
2023/06/04 02:46:40;;;;;;;0.63;0.30;;;;;;;;;;5055118;28;20029;-80
2023/06/04 02:49:06;;;;;;;0.40;0.30;;;;;;;;;;5055027;28;20037;-80
2023/06/04 02:51:32;;;;;;;0.50;0.50;;;;;;;;;;5055067;28;20033;-80
2023/06/04 02:53:58;;;;;;;0.65;0.55;;;;;;;;;;5055390;28;20525;-80
2023/06/04 02:56:25;;;;;;;0.45;0.45;;;;;;;;;;5055052;28;20025;-81
2023/06/04 02:58:53;;;;;;;1.05;0.40;;;22.10;54.20;;;;;;5054933;28;20025;-80
2023/06/04 03:01:22;;;;;;;0.90;0.25;;;22.20;49.90;;;;;;5054950;28;20029;-81
2023/06/04 03:03:48;;;;;;;0.77;0.50;;;;;;;;;;5054797;28;20037;-81
2023/06/04 03:06:15;;;;;;;0.93;0.30;;;22.10;55.10;;;;;;5054984;28;20096;-80
2023/06/04 03:08:42;;;;;;;0.28;0.22;;;;;;;;;;5053447;28;20025;-81
2023/06/04 03:11:08;;;;;;;0.43;0.43;;;;;;;;;;5054644;28;20051;-80
2023/06/04 03:13:34;;;;;;;1.23;0.30;;;;;;;;;;5054434;28;20083;-81
2023/06/04 03:16:02;;;;;;;1.27;0.40;;;;;;;;;;5053493;28;20029;-81
2023/06/04 03:18:29;;;;;;;0.47;0.30;;;;;;;;;;5054611;28;20029;-81
2023/06/04 03:20:55;;;;;;;0.50;0.35;;;;;;;;;;5054449;28;20455;-80
2023/06/04 03:23:21;;;;;;;0.40;0.35;;;;;;;;;;5054491;28;20079;-80
2023/06/04 03:25:48;;;;;;;1.13;0.52;;;;;;;;;;5054404;28;20075;-80
2023/06/04 03:28:14;;;;;;;0.55;0.32;;;;;;;;;;5054256;28;20059;-81
2023/06/04 03:30:40;;;;;;;0.52;0.43;;;21.90;53.20;;;;;;5052987;28;20029;-80
2023/06/04 03:33:07;;;;;;;0.50;0.40;;;;;;;;;;5054059;28;20028;-80
2023/06/04 03:35:33;;;;;;;0.70;0.40;;;;;;;;;;5054074;28;20041;-80
2023/06/04 03:37:59;;;;;;;0.40;0.30;;;;;;;;;;5054074;28;20025;-80
2023/06/04 03:40:25;;;;;;;0.47;0.40;;;;;;;;;;5054157;28;20479;-80
2023/06/04 03:42:51;;;;;;;0.88;0.38;;;;;;;;;;5054095;28;20047;-81
2023/06/04 03:45:17;;;;;;;0.82;0.50;;;;;;;;;;5054031;28;20036;-80
2023/06/04 03:47:43;;;;;;;0.60;0.30;;;;;;;;;;5053993;28;20112;-80
2023/06/04 03:50:09;;;;;;;0.45;0.40;;;;;;;;;;5053861;28;20540;-80
2023/06/04 03:52:35;;;;;;;0.77;0.30;;;21.80;53.40;;;;;;5054023;28;20028;-77
2023/06/04 03:55:02;;;;;;;0.60;0.40;;;;;;;;;;5053664;28;20506;-77
2023/06/04 03:57:29;;;;;;;0.70;0.40;;;;;;;;;;5053747;28;20056;-77
2023/06/04 03:59:55;;;;;;;0.80;0.40;;;;;;;;;;5053986;28;20033;-77
2023/06/04 04:02:21;;;;;;;0.70;0.40;;;;;;;;;;5053458;28;20079;-77
2023/06/04 04:04:48;;;;;;;1.00;0.43;;;;;;;;;;5053652;28;20029;-77
2023/06/04 04:07:15;;;;;;;0.77;0.40;;;;;;;;;;5053563;28;20029;-77
2023/06/04 04:09:41;;;;;;;0.55;0.50;;;;;;;;;;5053524;28;20052;-77
2023/06/04 04:12:07;;;;;;;0.47;0.43;;;;;;;;;;5053382;28;20029;-77
2023/06/04 04:14:33;;;;;;;1.15;0.60;;;;;;;;;;5053161;28;20056;-77
2023/06/04 04:16:59;;;;;;;1.73;0.50;;;;;;;;;;5052845;28;20025;-77
2023/06/04 04:19:28;;;;;;;0.65;0.43;;;;;;;;;;5053571;28;20039;-77
2023/06/04 04:21:54;;;;;;;0.30;0.30;;;;;;;;;;5053369;28;20391;-77
2023/06/04 04:24:27;;;;;;;0.63;0.47;;;21.60;50.40;;;;;;5053171;28;20033;-77
2023/06/04 04:26:53;;;;;;;0.43;0.40;;;;;;;;;;5053071;28;20193;-77
2023/06/04 04:29:24;;;;;;;0.52;0.30;;;21.70;55.90;;;;;;5053092;28;20553;-77
2023/06/04 04:31:50;;;;;;;0.40;0.30;;;;;;;;;;5053353;28;20376;-77
2023/06/04 04:34:16;;;;;;;0.50;0.32;;;;;;;;;;5052861;28;20041;-77
2023/06/04 04:36:51;;;;;;;0.40;0.30;;;21.60;50.80;;;;;;5053075;28;20056;-77
2023/06/04 04:39:24;;;;;;;0.45;0.40;;;21.70;54.40;;;;;;5053109;28;20025;-77
2023/06/04 04:41:50;;;;;;;1.67;0.80;;;;;;;;;;5053268;28;20418;-77
2023/06/04 04:44:17;;;;;;;0.40;0.30;;;;;;;;;;5053012;28;20402;-77
2023/06/04 04:46:43;;;;;;;0.45;0.40;;;;;;;;;;5053081;28;20033;-77
2023/06/04 04:49:10;;;;;;;1.15;0.40;;;;;;;;;;5053012;28;20387;-77
2023/06/04 04:51:36;;;;;;;0.40;0.30;;;;;;;;;;5052665;28;20025;-77
2023/06/04 04:54:02;;;;;;;0.30;0.30;;;;;;;;;;5052546;28;20442;-77
2023/06/04 04:56:29;;;;;;;0.63;0.50;;;;;;;;;;5052568;28;20029;-78
2023/06/04 04:58:55;;;;;;;0.50;0.47;;;;;;;;;;5052797;28;20064;-77
2023/06/04 05:01:23;;;;;;;0.43;0.20;;;;;;;;;;5052392;28;20033;-77
2023/06/04 05:03:50;;;;;;;0.60;0.40;;;;;;;;;;5052834;28;20368;-77
2023/06/04 05:06:16;;;;;;;0.75;0.50;;;;;;;;;;5052865;28;20071;-77
2023/06/04 05:08:43;;;;;;;0.40;0.30;;;;;;;;;;5052721;28;20021;-78
2023/06/04 05:11:09;;;;;;;0.82;0.30;;;;;;;;;;5052674;28;20074;-77
2023/06/04 05:13:36;;;;;;;0.30;0.30;;;;;;;;;;5052263;28;20087;-77
2023/06/04 05:16:11;;;;;;;0.32;0.30;;;;;;;;;;5052558;28;20029;-77
2023/06/04 05:18:40;;;;;;;1.08;0.40;;;;;;;;;;5052308;28;20032;-77
2023/06/04 05:21:07;;;;;;;0.70;0.50;;;;;;;;;;5052468;28;20104;-77
2023/06/04 05:23:34;;;;;;;0.70;0.30;;;;;;;;;;5052510;28;20418;-77
2023/06/04 05:26:01;;;;;;;0.50;0.40;;;;;;;;;;5052498;28;20096;-77
2023/06/04 05:28:27;;;;;;;0.85;0.50;;;;;;;;;;5051474;28;20040;-77
2023/06/04 05:30:58;;;;;;;0.65;0.38;;;;;;;;;;5052432;28;20060;-77
2023/06/04 05:33:25;;;;;;;0.65;0.30;;;;;;;;;;5052262;28;20078;-77
2023/06/04 05:35:51;;;;;;;0.65;0.40;;;;;;;;;;5052323;28;20139;-77
2023/06/04 05:38:18;;;;;;;0.40;0.40;;;;;;;;;;5052232;28;20041;-77
2023/06/04 05:40:45;;;;;;;0.52;0.28;;;21.40;56.30;;;;;;5052120;28;20108;-77
2023/06/04 05:43:12;;;;;;;0.55;0.35;;;;;;;;;;5052339;28;20049;-77
2023/06/04 05:45:38;;;;;;;0.70;0.43;;;;;;;;;;5052186;28;20054;-77
2023/06/04 05:48:05;;;;;;;0.40;0.40;;;;;;;;;;5052243;28;20033;-77
2023/06/04 05:50:32;;;;;;;0.55;0.50;;;;;;;;;;5052116;28;20021;-77
2023/06/04 05:52:58;;;;;;;0.50;0.50;;;;;;;;;;5052237;28;20040;-77
2023/06/04 05:55:24;;;;;;;0.68;0.38;;;;;;;;;;5051728;28;20041;-77
2023/06/04 05:57:51;;;;;;;0.35;0.35;;;;;;;;;;5051672;28;20043;-77
2023/06/04 06:00:18;;;;;;;0.30;0.20;;;21.50;52.80;;;;;;5052173;28;20404;-77
2023/06/04 06:02:45;;;;;;;0.47;0.45;;;;;;;;;;5051758;28;20029;-77
2023/06/04 06:05:11;;;;;;;0.70;0.40;;;;;;;;;;5052003;28;20071;-77
2023/06/04 06:07:37;;;;;;;0.75;0.50;;;;;;;;;;5051607;28;20487;-77
2023/06/04 06:10:03;;;;;;;0.63;0.38;;;;;;;;;;5051567;28;20399;-77
2023/06/04 06:12:29;;;;;;;0.32;0.30;;;;;;;;;;5051697;28;20135;-77
2023/06/04 06:14:56;;;;;;;0.45;0.30;;;;;;;;;;5051402;28;20480;-77
2023/06/04 06:17:22;;;;;;;0.95;0.40;;;;;;;;;;5051726;28;20018;-77
2023/06/04 06:19:48;;;;;;;0.70;0.50;;;;;;;;;;5051647;28;20040;-77
2023/06/04 06:22:15;;;;;;;1.27;0.30;;;;;;;;;;5051575;28;20029;-77
2023/06/04 06:24:41;;;;;;;1.08;0.40;;;;;;;;;;5050301;28;20087;-77
2023/06/04 06:27:08;;;;;;;0.60;0.55;;;;;;;;;;5051549;28;20025;-77
2023/06/04 06:29:34;;;;;;;0.57;0.30;;;;;;;;;;5051452;28;20361;-77
2023/06/04 06:32:00;;;;;;;0.50;0.40;;;;;;;;;;5051472;28;20076;-77
2023/06/04 06:34:26;;;;;;;0.93;0.50;;;;;;;;;;5051450;28;20045;-77
2023/06/04 06:36:52;;;;;;;1.65;0.32;;;;;;;;;;5051545;28;20025;-77
2023/06/04 06:39:18;;;;;;;0.70;0.28;;;;;;;;;;5052432;28;20028;-81
2023/06/04 06:41:45;;;;;;;0.82;0.40;;;21.20;56.80;;;;;;5055454;28;20072;-79
2023/06/04 06:44:11;;;;;;;0.43;0.40;;;;;;;;;;5055115;28;20040;-80
2023/06/04 06:46:37;;;;;;;0.90;0.40;;;;;;;;;;5055114;28;20025;-80
2023/06/04 06:49:03;;;;;;;0.52;0.47;;;;;;;;;;5055048;28;20108;-80
2023/06/04 06:51:29;;;;;;;0.65;0.40;;;;;;;;;;5055351;28;20021;-80
2023/06/04 06:53:56;;;;;;;0.43;0.30;;;;;;;;;;5054843;28;20033;-80
2023/06/04 06:56:22;;;;;;;0.57;0.40;;;;;;;;;;5055339;28;20037;-81
2023/06/04 06:58:49;;;;;;;1.85;0.50;;;;;;;;;;5055109;28;20025;-81
2023/06/04 07:01:15;;;;;;;0.90;0.40;;;;;;;;;;5055081;28;20025;-81
2023/06/04 07:03:42;;;;;;;0.50;0.40;;;;;;;;;;5054593;28;20480;-80
2023/06/04 07:06:08;;;;;;;0.50;0.40;;;;;;;;;;5054753;28;20116;-78
2023/06/04 07:08:35;;;;;;;0.85;0.50;;;;;;;;;;5054714;28;20033;-76
2023/06/04 07:11:02;;;;;;;0.70;0.43;;;21.30;57.00;;;;;;5054669;28;20074;-79
2023/06/04 07:13:31;;;;;;;0.60;0.30;;;;;;;;;;5054770;28;20120;-82
2023/06/04 07:15:58;;;;;;;2.10;0.50;;;;;;;;;;5054853;28;20468;-82
2023/06/04 07:18:24;;;;;;;0.60;0.50;;;;;;;;;;5054628;28;20536;-79
2023/06/04 07:20:52;;;;;;;0.50;0.50;;;;;;;;;;5054535;28;20120;-82
2023/06/04 07:23:19;;;;;;;0.38;0.38;;;;;;;;;;5054777;28;20025;-82
2023/06/04 07:25:45;;;;;;;2.85;0.45;;;;;;;;;;5054504;28;20025;-80
2023/06/04 07:28:11;;;;;;;0.45;0.40;;;;;;;;;;5054719;28;20032;-80
2023/06/04 07:30:38;;;;;;;0.40;0.30;;;;;;;;;;5054689;28;20383;-82
2023/06/04 07:33:06;;;;;;;0.52;0.30;;;;;;;;;;5054338;28;20033;-78
2023/06/04 07:35:32;;;;;;;0.57;0.50;;;;;;;;;;5054270;28;20048;-80
2023/06/04 07:37:59;;;;;;;0.52;0.40;;;;;;;;;;5054065;28;20024;-79
2023/06/04 07:40:25;;;;;;;0.55;0.50;;;;;;;;;;5054465;28;20033;-80
2023/06/04 07:42:52;;;;;;;0.90;0.35;;;;;;;;;;5054520;28;20025;-79
2023/06/04 07:45:18;;;;;;;0.50;0.40;;;;;;;;;;5054331;28;20041;-79
2023/06/04 07:47:45;;;;;;;1.70;0.32;;;;;;;;;;5054228;28;20060;-79
2023/06/04 07:50:11;;;;;;;1.25;0.40;;;;;;;;;;5054317;28;20033;-78
2023/06/04 07:52:38;;;;;;;0.85;0.35;;;;;;;;;;5053372;28;20035;-78
2023/06/04 07:55:04;;;;;;;0.40;0.30;;;;;;;;;;5054079;28;20041;-78
2023/06/04 07:57:31;;;;;;;1.42;0.38;;;;;;;;;;5054160;28;20383;-78
2023/06/04 07:59:59;;;;;;;3.10;0.30;;;;;;;;;;5054072;28;20025;-78
2023/06/04 08:02:25;;;;;;;1.15;0.38;;;;;;;;;;5053611;28;20053;-78
2023/06/04 08:04:52;;;;;;;1.05;0.40;;;;;;;;;;5053721;28;20036;-78
2023/06/04 08:07:18;;;;;;;4.45;0.50;;;;;;;;;;5053905;28;20032;-78
2023/06/04 08:09:45;;;;;;;0.88;0.40;;;;;;;;;;5054071;28;20040;-78
2023/06/04 08:12:12;;;;;;;0.60;0.47;;;;;;;;;;5053721;28;20537;-78
2023/06/04 08:14:38;;;;;;;0.77;0.50;;;;;;;;;;5053264;28;20085;-78
2023/06/04 08:17:05;;;;;;;1.60;0.52;;;;;;;;;;5053432;28;20459;-78
2023/06/04 08:19:31;;;;;;;2.05;0.43;;;;;;;;;;5053799;28;20395;-78
2023/06/04 08:21:57;;;;;;;0.40;0.40;;;;;;;;;;5053357;28;20029;-78
2023/06/04 08:24:24;;;;;;;2.75;0.68;;;;;;;;;;5053613;28;20033;-78
2023/06/04 08:26:51;;;;;;;0.40;0.35;;;;;;;;;;5053612;28;20041;-78
2023/06/04 08:29:17;;;;;;;1.70;0.45;;;;;;;;;;5053525;28;20033;-78
2023/06/04 08:31:43;;;;;;;0.70;0.22;;;;;;;;;;5053424;28;20032;-78
2023/06/04 08:34:09;;;;;;;1.08;0.30;;;;;;;;;;5053125;28;20047;-78
2023/06/04 08:36:35;;;;;;;0.82;0.30;;;;;;;;;;5053282;28;20029;-78
2023/06/04 08:39:02;;;;;;;1.75;0.50;;;;;;;;;;5052073;28;20033;-78
2023/06/04 08:41:44;;;;;;;0.30;0.30;;;22.00;53.40;;;;;;5053232;28;20033;-78
2023/06/04 08:44:10;;;;;;;1.02;0.40;;;;;;;;;;5053461;28;20029;-78
2023/06/04 08:46:41;;;;;;;3.13;0.57;;;22.00;58.60;;;;;;5053070;28;20471;-78
2023/06/04 08:49:08;;;;;;;0.40;0.40;;;22.10;56.20;;;;;;5052844;28;20025;-78
2023/06/04 08:51:40;;;;;;;1.17;0.40;;;22.10;58.70;;;;;;5053128;28;20029;-78
2023/06/04 08:54:08;;;;;;;0.52;0.30;;;22.10;58.90;;;;;;5052787;28;20033;-78
2023/06/04 08:56:37;;;;;;;0.40;0.30;;;22.20;53.60;;;;;;5052929;28;20537;-79
2023/06/04 08:59:07;;;;;;;0.75;0.40;;;22.20;59.40;;;;;;5052826;28;20040;-79
2023/06/04 09:01:36;;;;;;;0.45;0.20;;;22.20;59.50;;;;;;5052491;28;20025;-79
2023/06/04 09:04:07;;;;;;;1.08;0.35;;;22.20;54.20;;;;;;5052479;28;20032;-79
2023/06/04 09:06:34;;;;;;;1.15;0.52;;;;;;;;;;5052798;28;20029;-79
2023/06/04 09:09:05;;;;;;;0.60;0.40;;;22.30;59.80;;;;;;5052870;28;20078;-79
2023/06/04 09:11:37;;;;;;;0.82;0.38;;;22.40;59.70;;;;;;5052869;28;20025;-79
2023/06/04 09:14:08;;;;;;;1.10;0.50;;;22.50;54.30;;;;;;5052300;28;20049;-79
2023/06/04 09:16:51;;;;;;;0.50;0.40;;;22.40;54.10;;;;;;5052540;28;20025;-79
2023/06/04 09:19:18;;;;;;;1.67;0.38;;;22.50;57.30;;;;;;5052349;28;20089;-79
2023/06/04 09:21:57;;;;;;;1.27;0.30;;;22.70;54.10;;;;;;5052585;28;20024;-79
2023/06/04 09:24:26;;;;;;;1.90;0.30;;;22.70;59.80;;;;;;5052664;28;20025;-79
2023/06/04 09:26:52;;;;;;;0.50;0.30;;;;;;;;;;5052212;28;20483;-77
2023/06/04 09:29:18;;;;;;;2.03;0.45;;;;;;;;;;5052269;28;20036;-78
2023/06/04 09:31:46;;;;;;;0.35;0.35;;;22.90;59.50;;;;;;5055674;28;20037;-77
2023/06/04 09:34:12;;;;;;;0.73;0.30;;;;;;;;;;5052075;28;20621;-78
2023/06/04 09:36:38;;;;;;;0.98;0.45;;;;;;;;;;5052204;28;20075;-78
2023/06/04 09:39:17;;;;;;;0.50;0.40;;;23.10;59.20;;;;;;5052088;28;20024;-78
2023/06/04 09:41:43;;;;;;;1.40;0.63;;;;;;;;;;5052028;28;20025;-78
2023/06/04 09:44:11;;;;;;;1.27;0.60;;;;;;;;;;5052053;28;20368;-78
2023/06/04 09:46:37;;;;;;;1.92;0.70;;;;;;;;;;5051899;28;20021;-78
2023/06/04 09:49:04;;;;;;;0.73;0.57;;;23.40;58.30;;;;;;5051963;28;20055;-78
2023/06/04 09:51:31;;;;;;;2.53;0.60;;;;;;;;;;5052121;28;20031;-80
2023/06/04 09:53:58;;;;;;;0.90;0.60;;;23.50;59.00;;;;;;5051933;28;20041;-81
2023/06/04 09:56:26;;;;;;;1.00;0.70;;;;;;;;;;5050556;28;20078;-81
2023/06/04 09:58:55;;;;;;;1.85;0.77;;;23.60;59.40;;;;;;5051843;28;20029;-82
2023/06/04 10:01:23;;;;;;;1.13;0.40;;;23.70;59.30;;;;;;5052021;28;20032;-82
2023/06/04 10:03:52;;;;;;;1.35;0.65;;;23.70;59.10;;;;;;5051879;28;20030;-81
2023/06/04 10:06:20;;;;;;;1.65;0.60;;;23.80;59.30;;;;;;5052102;28;20037;-81
2023/06/04 10:08:46;;;;;;;0.77;0.47;;;;;;;;;;5052110;28;20059;-81
2023/06/04 10:11:13;;;;;;;1.70;0.60;;;23.80;58.70;;;;;;5051986;28;20033;-81
2023/06/04 10:13:54;;;;;;;1.13;0.60;;;23.90;58.60;;;;;;5051535;28;20040;-82
2023/06/04 10:16:20;;;;;;;1.83;0.50;;;;;;;;;;5055931;28;20104;-83
2023/06/04 10:18:46;;;;;;;0.77;0.50;;;;;;;;;;5055923;28;20053;-83
2023/06/04 10:21:13;;;;;;;1.40;0.70;;;24.10;59.60;;;;;;5055756;28;20056;-81
2023/06/04 10:23:40;;;;;;;0.60;0.50;;;;;;;;;;5054403;28;20025;-81
2023/06/04 10:26:06;;;;;;;0.90;0.70;;;;;;;;;;5055560;28;20029;-82
2023/06/04 10:28:34;;;;;;;0.70;0.70;;;24.40;58.70;;;;;;5055514;28;20503;-82
2023/06/04 10:31:00;;;;;;;2.60;0.52;;;;;;;;;;5055625;28;20032;-81
2023/06/04 10:33:28;;;;;;;1.10;0.50;;;;;;;;;;5055422;28;20407;-78
2023/06/04 10:35:57;;;;;;;1.13;0.40;;;24.50;58.50;;;;;;5055411;28;20044;-77
2023/06/04 10:38:24;;;;;;;1.88;0.60;;;;;;;;;;5055636;28;20104;-82
2023/06/04 10:40:50;;;;;;;1.13;0.77;;;;;;;;;;5055819;28;20472;-83
2023/06/04 10:43:16;;;;;;;0.60;0.50;;;;;;;;;;5055650;28;20065;-78
2023/06/04 10:45:42;;;;;;;0.90;0.50;;;24.70;58.20;;;;;;5055325;28;20032;-78
2023/06/04 10:48:10;;;;;;;0.90;0.80;;;24.80;58.70;;;;;;5055233;28;20021;-79
2023/06/04 10:50:48;;;;;;;0.75;0.52;;;24.90;59.10;;;;;;5055202;28;20024;-78
2023/06/04 10:53:14;;;;;;;1.67;0.60;;;;;;;;;;5055374;28;20418;-79
2023/06/04 10:55:49;;;;;;;1.35;0.60;;;25.10;53.00;;;;;;5055221;28;20368;-79
2023/06/04 10:58:17;;;;;;;0.60;0.60;;;;;;;;;;5055102;28;20502;-78
2023/06/04 11:00:47;;;;;;;1.17;0.55;;;25.20;57.90;;;;;;5055270;28;20059;-78
2023/06/04 11:03:13;;;;;;;1.35;0.70;;;;;;;;;;5054950;28;20021;-78
2023/06/04 11:05:39;;;;;;;1.58;0.60;;;;;;;;;;5054967;28;20029;-78
2023/06/04 11:08:06;;;;;;;1.48;0.80;;;;;;;;;;5054930;28;20064;-79
2023/06/04 11:10:37;;;;;;;1.15;0.60;;;25.50;57.80;;;;;;5054907;28;20032;-77
2023/06/04 11:13:04;;;;;;;1.33;0.50;;;25.50;57.80;;;;;;5054699;28;20426;-78
2023/06/04 11:15:56;;;;;;;0.98;0.70;;;25.50;52.10;;;;;;5054813;28;20120;-79
2023/06/04 11:18:22;;;;;;;1.60;0.47;;;;;;;;;;5053597;28;20039;-80
2023/06/04 11:20:57;;;;;;;0.50;0.50;;;25.70;57.20;;;;;;5054930;28;20026;-82
2023/06/04 11:23:24;;;;;;;1.77;0.50;;;;;;;;;;5054614;28;20021;-82
2023/06/04 11:25:53;;;;;;;0.57;0.35;;;25.80;57.40;;;;;;5053646;28;20029;-84
2023/06/04 11:28:21;;;;;;;0.45;0.45;;;;;;;;;;5054881;28;20157;-83
2023/06/04 11:31:08;;;;;;;0.88;0.63;;;26.00;52.30;;;;;;5054538;28;20403;-83
2023/06/04 11:33:46;;;;;;;1.13;0.50;;;26.10;56.10;;;;;;5054463;28;20112;-82
2023/06/04 11:36:28;;;;;;;1.38;0.70;;;26.20;51.40;;;;;;5054280;28;20025;-81
2023/06/04 11:39:02;;;;;;;1.75;0.63;;;26.30;51.90;;;;;;5054349;28;20099;-81
2023/06/04 11:41:32;;;;;;;1.65;0.90;;;26.40;57.00;;;;;;5054157;28;20398;-82
2023/06/04 11:44:05;;;;;;;1.00;0.63;;;26.50;57.00;;;;;;5054000;28;20361;-81
2023/06/04 11:46:41;;;;;;;0.73;0.43;;;26.40;51.20;;;;;;5054457;28;20017;-78
2023/06/04 11:49:07;;;;;;;0.50;0.50;;;;;;;;;;5053926;28;20028;-79
2023/06/04 11:51:33;;;;;;;2.33;0.70;;;26.50;53.60;;;;;;5053923;28;20021;-78
2023/06/04 11:53:59;;;;;;;0.50;0.50;;;;;;;;;;5053700;28;20040;-78
2023/06/04 11:56:28;;;;;;;1.08;0.50;;;;;;;;;;5053845;28;20037;-78
2023/06/04 11:58:57;;;;;;;0.63;0.43;;;26.70;50.70;;;;;;5053805;28;20032;-79
2023/06/04 12:01:23;;;;;;;1.70;1.00;;;;;;;;;;5053863;28;20033;-78
2023/06/04 12:03:50;;;;;;;1.88;0.60;;;;;;;;;;5053984;28;20115;-79
2023/06/04 12:06:20;;;;;;;0.95;0.55;;;27.10;44.80;;;;;;5053504;28;20048;-80
2023/06/04 12:08:48;;;;;;;1.40;0.60;;;27.00;48.00;;;;;;5054210;28;20021;-81
2023/06/04 12:11:27;;;;;;;0.70;0.40;;;27.50;68.80;;;;;;5054013;28;20138;-81
2023/06/04 12:13:55;;;;;;;0.53;0.40;;;27.10;45.80;;;;;;5053538;28;20057;-81
2023/06/04 12:16:22;;;;;;;0.50;0.40;;;;;;;;;;5053766;28;20275;-79
2023/06/04 12:18:50;;;;;;;0.80;0.52;;;;;;;;;;5053824;28;20100;-80
2023/06/04 12:21:28;;;;;;;1.15;0.70;;;27.30;81.90;;;;;;5053542;28;20469;-80
2023/06/04 12:24:06;;;;;;;1.38;0.40;;;27.50;81.90;;;;;;5053197;28;20541;-80
2023/06/04 12:26:37;;;;;;;0.93;0.60;;;;;;;;;;5053590;28;20032;-80
2023/06/04 12:29:10;;;;;;;0.75;0.50;;;27.40;43.60;;;;;;5053497;28;20108;-80
2023/06/04 12:31:40;;;;;;;1.02;0.60;;;27.50;53.30;;;;;;5053409;28;20039;-80
2023/06/04 12:34:06;;;;;;;1.05;0.73;;;;;;;;;;5052980;28;20051;-80
2023/06/04 12:36:36;;;;;;;2.42;0.73;;;;;;;;;;5053044;28;20033;-80
2023/06/04 12:39:04;;;;;;;2.58;0.50;;;27.60;55.40;;;;;;5052950;28;20506;-81
2023/06/04 12:41:33;;;;;;;0.85;0.50;;;27.70;54.40;;;;;;5053217;28;20025;-80
2023/06/04 12:43:59;;;;;;;1.17;0.57;;;;;;;;;;5052840;28;20021;-80
2023/06/04 12:46:26;;;;;;;2.28;0.50;;;;;;;;;;5052952;28;20029;-80
2023/06/04 12:48:54;;;;;;;2.00;0.80;;;27.90;54.70;;;;;;5053140;28;20396;-80
2023/06/04 12:51:20;;;;;;;0.80;0.65;;;28.00;51.40;;;;;;5053036;28;20052;-80
2023/06/04 12:53:47;;;;;;;0.82;0.60;;;28.10;53.50;;;;;;5052882;28;20029;-79
2023/06/04 12:56:14;;;;;;;1.27;0.50;;;;;;;;;;5052601;28;20029;-80
2023/06/04 12:58:40;;;;;;;3.00;0.65;;;;;;;;;;5052665;28;20029;-79
2023/06/04 13:01:07;;;;;;;1.20;0.73;;;;;;;;;;5052883;28;20029;-80
2023/06/04 13:03:37;;;;;;;1.23;0.82;;;28.20;54.70;;;;;;5052806;28;20044;-80
2023/06/04 13:06:03;;;;;;;4.38;0.90;;;;;;;;;;5052806;28;20021;-80
2023/06/04 13:08:30;;;;;;;1.23;0.70;;;;;;;;;;5052736;28;20043;-80
2023/06/04 13:10:56;;;;;;;1.77;0.52;;;;;;;;;;5052465;28;20025;-80
2023/06/04 13:13:23;;;;;;;1.05;0.60;;;;;;;;;;5052100;28;20061;-80
2023/06/04 13:15:49;;;;;;;1.42;0.60;;;;;;;;;;5052546;28;20056;-80
2023/06/04 13:18:17;;;;;;;0.55;0.40;;;;;;;;;;5052466;28;20118;-80
2023/06/04 13:20:43;;;;;;;1.48;0.65;;;;;;;;;;5052264;28;20029;-80
2023/06/04 13:23:11;;;;;;;1.75;0.60;;;;;;;;;;5052503;28;20447;-80
2023/06/04 13:25:39;;;;;;;0.50;0.50;;;28.50;52.30;;;;;;5052181;28;20479;-80
2023/06/04 13:28:07;;;;;;;1.67;0.70;;;;;;;;;;5052452;28;20052;-80
2023/06/04 13:30:38;;;;;;;0.85;0.50;;;28.60;54.20;;;;;;5052048;28;20028;-80
2023/06/04 13:33:21;;;;;;;2.58;0.70;;;;;;;;;;5051863;28;20053;-80
2023/06/04 13:35:50;;;;;;;1.35;0.90;;;;;;;;;;5052331;28;20055;-80
2023/06/04 13:38:16;;;;;;;1.35;0.75;;;;;;;;;;5052265;28;20029;-80
2023/06/04 13:40:43;;;;;;;0.52;0.47;;;;;;;;;;5052439;28;20485;-80
2023/06/04 13:43:09;;;;;;;1.13;0.50;;;;;;;;;;5052251;28;20060;-80
2023/06/04 13:45:36;;;;;;;2.30;0.80;;;;;;;;;;5051919;28;20508;-80
2023/06/04 13:48:05;;;;;;;0.93;0.60;;;;;;;;;;5051875;28;20025;-80
2023/06/04 13:50:32;;;;;;;1.92;0.75;;;;;;;;;;5051349;28;20025;-80
2023/06/04 13:52:58;;;;;;;2.05;0.68;;;;;;;;;;5051713;28;20090;-80
2023/06/04 13:55:25;;;;;;;1.73;0.55;;;;;;;;;;5051742;28;20040;-80
2023/06/04 13:57:51;;;;;;;0.63;0.57;;;;;;;;;;5052158;28;20024;-80
2023/06/04 14:00:18;;;;;;;1.05;0.65;;;;;;;;;;5051882;28;20033;-80
2023/06/04 14:02:44;;;;;;;0.98;0.60;;;;;;;;;;5051672;28;20032;-80
2023/06/04 14:05:11;;;;;;;1.33;0.60;;;;;;;;;;5051973;28;20040;-80
2023/06/04 14:07:37;;;;;;;1.75;0.55;;;;;;;;;;5051868;28;20051;-80
2023/06/04 14:10:04;;;;;;;1.20;0.70;;;;;;;;;;5051574;28;20472;-80
2023/06/04 14:12:30;;;;;;;0.73;0.70;;;;;;;;;;5051675;28;20013;-80